createdAt,value
2023-01-25T00:03:06.774Z,102848.50
2023-01-25T00:06:34.114Z,102844.86
2023-01-25T00:10:01.757Z,102842.29
2023-01-25T00:13:28.910Z,102838.15
2023-01-25T00:16:56.110Z,102841.89
2023-01-25T00:20:23.563Z,102845.59
2023-01-25T00:23:50.891Z,102842.38
2023-01-25T00:27:18.051Z,102844.59
2023-01-25T00:30:45.307Z,102848.05
2023-01-25T00:34:45.453Z,102848.59
2023-01-25T00:38:29.928Z,102848.01
2023-01-25T00:41:57.210Z,102845.44
2023-01-25T00:45:24.209Z,102852.63
2023-01-25T00:48:54.136Z,102850.49
2023-01-25T00:52:22.627Z,102847.26
2023-01-25T00:55:55.997Z,102854.33
2023-01-25T00:59:23.368Z,102854.96
2023-01-25T01:02:50.751Z,102860.69
2023-01-25T01:06:18.417Z,102854.15
2023-01-25T01:09:45.904Z,102852.73
2023-01-25T01:13:13.230Z,102851.79
2023-01-25T01:16:42.447Z,102850.91
2023-01-25T01:20:12.186Z,102848.30
2023-01-25T01:23:39.991Z,102846.60
2023-01-25T01:27:07.637Z,102844.74
2023-01-25T01:30:34.530Z,102846.33
2023-01-25T01:34:02.012Z,102841.36
2023-01-25T01:37:29.330Z,102844.73
2023-01-25T01:40:56.255Z,102840.27
2023-01-25T01:44:37.478Z,102836.17
2023-01-25T01:48:05.007Z,102842.45
2023-01-25T01:51:42.236Z,102841.25
2023-01-25T01:55:18.163Z,102835.38
2023-01-25T01:58:46.515Z,102833.17
2023-01-25T02:02:13.602Z,102830.70
2023-01-25T02:05:48.710Z,102826.85
2023-01-25T02:09:19.795Z,102823.29
2023-01-25T02:12:49.215Z,102822.20
2023-01-25T02:16:20.901Z,102817.78
2023-01-25T02:19:55.556Z,102812.48
2023-01-25T02:23:31.565Z,102809.75
2023-01-25T02:26:59.138Z,102807.68
2023-01-25T02:30:28.226Z,102806.19
2023-01-25T02:33:55.710Z,102805.02
2023-01-25T02:37:22.971Z,102799.11
2023-01-25T02:40:57.068Z,102798.83
2023-01-25T02:44:27.915Z,102798.86
2023-01-25T02:47:56.480Z,102796.29
2023-01-25T02:51:25.706Z,102785.30
2023-01-25T02:54:52.987Z,102781.04
2023-01-25T02:58:20.295Z,102781.02
2023-01-25T03:01:48.406Z,102776.66
2023-01-25T03:05:16.428Z,102769.84
2023-01-25T03:08:44.051Z,102764.95
2023-01-25T03:12:11.487Z,102757.37
2023-01-25T03:15:39.297Z,102748.27
2023-01-25T03:19:06.578Z,102744.89
2023-01-25T03:22:33.876Z,102741.17
2023-01-25T03:26:10.539Z,102740.46
2023-01-25T03:29:40.057Z,102737.03
2023-01-25T03:33:10.843Z,102737.64
2023-01-25T03:36:37.802Z,102734.90
2023-01-25T03:40:05.753Z,102729.30
2023-01-25T03:43:33.593Z,102727.64
2023-01-25T03:47:01.643Z,102717.66
2023-01-25T03:50:29.135Z,102714.84
2023-01-25T03:53:56.017Z,102711.91
2023-01-25T03:57:23.168Z,102698.98
2023-01-25T04:00:55.731Z,102699.98
2023-01-25T04:04:23.315Z,102701.37
2023-01-25T04:07:51.136Z,102694.52
2023-01-25T04:11:20.883Z,102689.68
2023-01-25T04:14:48.742Z,102688.06
2023-01-25T04:18:21.295Z,102687.58
2023-01-25T04:21:48.357Z,102687.65
2023-01-25T04:25:15.996Z,102684.24
2023-01-25T04:28:47.664Z,102676.20
2023-01-25T04:32:14.749Z,102670.19
2023-01-25T04:35:42.139Z,102666.74
2023-01-25T04:39:09.296Z,102660.95
2023-01-25T04:42:37.249Z,102655.23
2023-01-25T04:46:05.581Z,102654.16
2023-01-25T04:49:33.196Z,102647.96
2023-01-25T04:53:00.284Z,102642.77
2023-01-25T04:56:27.988Z,102646.88
2023-01-25T04:59:55.974Z,102648.00
2023-01-25T05:03:23.493Z,102646.45
2023-01-25T05:06:50.485Z,102650.80
2023-01-25T05:10:17.904Z,102644.62
2023-01-25T05:14:04.814Z,102641.77
2023-01-25T05:17:33.305Z,102643.25
2023-01-25T05:21:00.451Z,102639.47
2023-01-25T05:24:29.083Z,102634.15
2023-01-25T05:27:57.186Z,102631.02
2023-01-25T05:31:41.371Z,102633.41
2023-01-25T05:35:11.544Z,102625.95
2023-01-25T05:38:39.085Z,102624.08
2023-01-25T05:42:13.834Z,102622.67
2023-01-25T05:45:41.542Z,102617.41
2023-01-25T05:49:09.159Z,102613.17
2023-01-25T05:52:36.235Z,102617.46
2023-01-25T05:56:10.260Z,102615.27
2023-01-25T05:59:37.369Z,102618.79
2023-01-25T06:03:05.652Z,102616.02
2023-01-25T06:06:35.468Z,102614.80
2023-01-25T06:10:03.953Z,102613.39
2023-01-25T06:13:31.495Z,102612.30
2023-01-25T06:16:58.820Z,102613.64
2023-01-25T06:20:26.180Z,102610.78
2023-01-25T06:24:05.589Z,102610.63
2023-01-25T06:27:32.594Z,102610.96
2023-01-25T06:31:04.548Z,102614.30
2023-01-25T06:34:31.975Z,102614.73
2023-01-25T06:37:59.843Z,102611.45
2023-01-25T06:41:26.813Z,102615.45
2023-01-25T06:44:54.089Z,102614.50
2023-01-25T06:48:20.981Z,102609.62
2023-01-25T06:51:47.861Z,102607.98
2023-01-25T06:55:14.859Z,102605.17
2023-01-25T06:58:42.214Z,102607.69
2023-01-25T07:02:10.772Z,102606.44
2023-01-25T07:05:37.840Z,102602.05
2023-01-25T07:09:10.206Z,102606.38
2023-01-25T07:12:37.106Z,102605.23
2023-01-25T07:16:05.872Z,102597.14
2023-01-25T07:19:32.772Z,102588.73
2023-01-25T07:23:02.104Z,102590.08
2023-01-25T07:26:29.336Z,102582.98
2023-01-25T07:29:56.143Z,102587.15
2023-01-25T07:33:23.033Z,102583.60
2023-01-25T07:36:49.938Z,102588.14
2023-01-25T07:40:18.214Z,102582.36
2023-01-25T07:43:45.055Z,102577.67
2023-01-25T07:47:12.000Z,102572.88
2023-01-25T07:50:39.532Z,102569.86
2023-01-25T07:54:07.745Z,102571.36
2023-01-25T07:57:35.129Z,102568.39
2023-01-25T08:01:09.080Z,102562.39
2023-01-25T08:04:36.803Z,102553.59
2023-01-25T08:08:03.960Z,102546.24
2023-01-25T08:11:32.860Z,102541.19
2023-01-25T08:14:59.845Z,102540.34
2023-01-25T08:18:26.697Z,102538.38
2023-01-25T08:21:53.824Z,102539.23
2023-01-25T08:25:21.111Z,102539.27
2023-01-25T08:28:48.315Z,102541.73
2023-01-25T08:32:16.234Z,102536.90
2023-01-25T08:35:43.029Z,102529.25
2023-01-25T08:39:12.035Z,102530.09
2023-01-25T08:42:39.163Z,102529.34
2023-01-25T08:46:06.897Z,102521.55
2023-01-25T08:49:35.430Z,102524.59
2023-01-25T08:53:02.211Z,102518.90
2023-01-25T08:56:29.051Z,102511.20
2023-01-25T08:59:55.928Z,102508.30
2023-01-25T09:03:22.749Z,102501.54
2023-01-25T09:06:49.693Z,102496.47
2023-01-25T09:10:17.573Z,102488.88
2023-01-25T09:13:44.724Z,102485.95
2023-01-25T09:17:12.105Z,102490.87
2023-01-25T09:20:41.011Z,102491.45
2023-01-25T09:24:09.725Z,102486.33
2023-01-25T09:27:37.121Z,102485.09
2023-01-25T09:31:21.136Z,102487.70
2023-01-25T09:35:02.320Z,102489.90
2023-01-25T09:38:29.879Z,102482.86
2023-01-25T09:42:15.701Z,102484.83
2023-01-25T09:45:42.688Z,102482.98
2023-01-25T09:49:22.620Z,102477.88
2023-01-25T09:53:03.748Z,102475.48
2023-01-25T09:56:35.115Z,102472.73
2023-01-25T10:00:08.455Z,102466.52
2023-01-25T10:03:46.945Z,102457.86
2023-01-25T10:07:25.623Z,102455.56
2023-01-25T10:11:00.018Z,102454.03
2023-01-25T10:14:27.933Z,102449.30
2023-01-25T10:18:02.891Z,102443.85
2023-01-25T10:21:36.493Z,102447.63
2023-01-25T10:25:33.969Z,102440.48
2023-01-25T10:29:10.068Z,102430.80
2023-01-25T10:32:39.737Z,102422.77
2023-01-25T10:36:18.168Z,102424.91
2023-01-25T10:40:01.660Z,102428.29
2023-01-25T10:43:28.691Z,102424.11
2023-01-25T10:47:07.253Z,102419.61
2023-01-25T10:50:53.745Z,102409.94
2023-01-25T10:54:23.420Z,102404.40
2023-01-25T10:57:52.739Z,102402.85
2023-01-25T11:01:32.426Z,102402.99
2023-01-25T11:04:59.425Z,102392.23
2023-01-25T11:08:33.548Z,102386.77
2023-01-25T11:12:02.123Z,102375.55
2023-01-25T11:15:29.321Z,102365.70
2023-01-25T11:18:57.886Z,102360.11
2023-01-25T11:22:26.153Z,102355.56
2023-01-25T11:25:53.866Z,102348.08
2023-01-25T11:29:22.592Z,102346.34
2023-01-25T11:32:49.748Z,102341.74
2023-01-25T11:36:36.476Z,102330.88
2023-01-25T11:40:15.960Z,102326.90
2023-01-25T11:44:05.540Z,102326.54
2023-01-25T11:47:48.913Z,102314.70
2023-01-25T11:51:25.001Z,102311.36
2023-01-25T11:55:05.644Z,102306.60
2023-01-25T11:58:49.499Z,102296.25
2023-01-25T12:02:41.287Z,102296.00
2023-01-25T12:06:14.789Z,102287.65
2023-01-25T12:09:56.740Z,102276.92
2023-01-25T12:13:33.967Z,102270.19
2023-01-25T12:17:14.575Z,102259.88
2023-01-25T12:21:03.057Z,102251.64
2023-01-25T12:24:45.646Z,102244.96
2023-01-25T12:28:21.235Z,102238.23
2023-01-25T12:31:55.821Z,102235.89
2023-01-25T12:35:32.921Z,102227.45
2023-01-25T12:39:05.044Z,102220.71
2023-01-25T12:42:37.441Z,102214.89
2023-01-25T12:46:10.486Z,102210.04
2023-01-25T12:49:44.521Z,102198.96
2023-01-25T12:53:18.847Z,102192.79
2023-01-25T12:56:53.512Z,102188.17
2023-01-25T13:00:31.870Z,102179.12
2023-01-25T13:04:15.701Z,102176.77
2023-01-25T13:07:54.738Z,102172.67
2023-01-25T13:11:24.967Z,102170.83
2023-01-25T13:14:52.153Z,102167.16
2023-01-25T13:18:41.970Z,102163.18
2023-01-25T13:22:10.871Z,102160.96
2023-01-25T13:25:37.863Z,102159.23
2023-01-25T13:29:05.098Z,102152.97
2023-01-25T13:32:59.209Z,102147.90
2023-01-25T13:36:47.990Z,102140.14
2023-01-25T13:40:32.582Z,102133.63
2023-01-25T13:44:22.955Z,102131.73
2023-01-25T13:48:04.831Z,102121.05
2023-01-25T13:51:36.835Z,102114.08
2023-01-25T13:55:17.655Z,102106.99
2023-01-25T13:58:49.344Z,102102.42
2023-01-25T14:02:20.680Z,102106.86
2023-01-25T14:05:54.603Z,102105.35
2023-01-25T14:09:22.847Z,102101.88
2023-01-25T14:12:50.663Z,102093.36
2023-01-25T14:16:20.804Z,102087.88
2023-01-25T14:19:50.901Z,102086.93
2023-01-25T14:23:26.384Z,102082.27
2023-01-25T14:26:54.069Z,102079.50
2023-01-25T14:30:24.245Z,102069.95
2023-01-25T14:33:57.762Z,102063.05
2023-01-25T14:37:25.002Z,102057.30
2023-01-25T14:40:54.410Z,102056.63
2023-01-25T14:44:22.369Z,102051.85
2023-01-25T14:47:59.122Z,102047.98
2023-01-25T14:51:31.175Z,102043.30
2023-01-25T14:55:00.389Z,102038.17
2023-01-25T14:58:31.685Z,102034.22
2023-01-25T15:02:00.897Z,102034.61
2023-01-25T15:05:29.179Z,102029.77
2023-01-25T15:08:56.710Z,102023.92
2023-01-25T15:12:40.131Z,102017.66
2023-01-25T15:16:07.857Z,102010.50
2023-01-25T15:19:35.339Z,102008.95
2023-01-25T15:23:07.460Z,102005.21
2023-01-25T15:26:36.961Z,101997.32
2023-01-25T15:30:05.035Z,101993.35
2023-01-25T15:33:34.019Z,101999.85
2023-01-25T15:37:01.317Z,101998.96
2023-01-25T15:40:28.426Z,101995.00
2023-01-25T15:43:55.470Z,101983.63
2023-01-25T15:47:22.612Z,101974.93
2023-01-25T15:50:49.921Z,101976.33
2023-01-25T15:54:17.062Z,101970.94
2023-01-25T15:57:46.980Z,101966.79
2023-01-25T16:01:14.591Z,101960.63
2023-01-25T16:04:42.223Z,101958.05
2023-01-25T16:08:13.757Z,101958.27
2023-01-25T16:11:40.979Z,101950.02
2023-01-25T16:15:10.321Z,101946.73
2023-01-25T16:18:37.343Z,101942.48
2023-01-25T16:22:04.640Z,101942.79
2023-01-25T16:25:32.112Z,101934.44
2023-01-25T16:28:59.259Z,101931.02
2023-01-25T16:32:26.526Z,101927.38
2023-01-25T16:36:15.502Z,101928.55
2023-01-25T16:39:42.565Z,101929.36
2023-01-25T16:43:09.601Z,101924.51
2023-01-25T16:46:36.563Z,101923.60
2023-01-25T16:50:03.573Z,101917.05
2023-01-25T16:53:30.615Z,101916.33
2023-01-25T16:56:58.963Z,101912.84
2023-01-25T17:00:27.578Z,101910.53
2023-01-25T17:03:55.637Z,101909.84
2023-01-25T17:07:22.912Z,101908.17
2023-01-25T17:10:51.023Z,101904.73
2023-01-25T17:14:20.471Z,101903.05
2023-01-25T17:17:48.312Z,101897.39
2023-01-25T17:21:17.790Z,101892.80
2023-01-25T17:24:43.437Z,101882.39
2023-01-25T17:28:10.974Z,101875.42
2023-01-25T17:31:39.792Z,101870.55
2023-01-25T17:35:08.403Z,101867.83
2023-01-25T17:38:35.505Z,101862.25
2023-01-25T17:42:02.832Z,101856.45
2023-01-25T17:58:46.729Z,101850.50
2023-01-25T18:02:14.573Z,101851.64
2023-01-25T18:05:42.218Z,101838.79
2023-01-25T18:09:09.999Z,101838.09
2023-01-25T18:12:37.952Z,101833.73
2023-01-25T18:16:05.764Z,101834.92
2023-01-25T18:19:33.395Z,101837.02
2023-01-25T18:23:00.712Z,101837.76
2023-01-25T18:26:30.543Z,101834.58
2023-01-25T18:30:04.241Z,101833.92
2023-01-25T18:33:33.309Z,101818.70
2023-01-25T18:37:01.247Z,101813.56
2023-01-25T18:40:30.411Z,101814.95
2023-01-25T18:43:58.740Z,101808.35
2023-01-25T18:47:27.819Z,101796.64
2023-01-25T18:50:55.433Z,101785.05
2023-01-25T18:54:23.708Z,101790.82
2023-01-25T18:57:51.701Z,101787.88
2023-01-25T19:01:21.231Z,101782.31
2023-01-25T19:04:49.973Z,101775.39
2023-01-25T19:08:19.359Z,101779.14
2023-01-25T19:11:47.783Z,101768.19
2023-01-25T19:15:17.023Z,101760.13
2023-01-25T19:18:47.191Z,101757.70
2023-01-25T19:22:16.374Z,101755.02
2023-01-25T19:25:42.968Z,101755.24
2023-01-25T19:29:11.423Z,101753.39
2023-01-25T19:32:40.224Z,101755.73
2023-01-25T19:36:15.454Z,101752.42
2023-01-25T19:39:44.904Z,101745.58
2023-01-25T19:43:15.187Z,101744.42
2023-01-25T19:46:44.887Z,101746.92
2023-01-25T19:50:13.182Z,101745.20
2023-01-25T19:53:46.432Z,101741.11
2023-01-25T19:57:17.299Z,101735.91
2023-01-25T20:00:46.753Z,101734.39
2023-01-25T20:04:19.638Z,101731.98
2023-01-25T20:07:48.376Z,101718.80
2023-01-25T20:11:19.759Z,101718.34
2023-01-25T20:14:48.591Z,101721.60
2023-01-25T20:18:17.527Z,101717.59
2023-01-25T20:21:47.386Z,101712.38
2023-01-25T20:25:17.192Z,101709.90
2023-01-25T20:28:49.425Z,101701.10
2023-01-25T20:32:32.046Z,101698.42
2023-01-25T20:36:05.650Z,101693.34
2023-01-25T20:39:34.983Z,101691.78
2023-01-25T20:43:02.127Z,101688.30
2023-01-25T20:46:34.515Z,101682.39
2023-01-25T20:50:04.132Z,101674.17
2023-01-25T20:53:35.409Z,101665.63
2023-01-25T20:57:04.835Z,101655.73
2023-01-25T21:00:34.007Z,101653.33
2023-01-25T21:04:03.875Z,101652.05
2023-01-25T21:07:33.302Z,101651.08
2023-01-25T21:11:03.533Z,101649.98
2023-01-25T21:14:31.452Z,101644.30
2023-01-25T21:17:58.953Z,101643.35
2023-01-25T21:21:29.539Z,101638.27
2023-01-25T21:24:57.121Z,101632.18
2023-01-25T21:28:24.444Z,101624.79
2023-01-25T21:31:53.290Z,101619.17
2023-01-25T21:35:20.491Z,101619.35
2023-01-25T21:38:48.731Z,101614.16
2023-01-25T21:42:15.907Z,101606.30
2023-01-25T21:46:01.065Z,101601.48
2023-01-25T21:49:45.604Z,101594.57
2023-01-25T21:53:12.954Z,101589.55
2023-01-25T21:56:39.912Z,101591.77
2023-01-25T22:00:09.079Z,101590.38
2023-01-25T22:03:36.315Z,101590.55
2023-01-25T22:07:03.481Z,101592.40
2023-01-25T22:10:30.513Z,101592.62
2023-01-25T22:13:58.237Z,101595.65
2023-01-25T22:17:25.695Z,101593.36
2023-01-25T22:20:59.788Z,101591.50
2023-01-25T22:24:27.288Z,101584.41
2023-01-25T22:28:00.998Z,101587.52
2023-01-25T22:31:29.708Z,101590.37
2023-01-25T22:34:57.132Z,101588.05
2023-01-25T22:38:24.536Z,101584.89
2023-01-25T22:41:51.494Z,101585.49
2023-01-25T22:45:18.620Z,101584.95
2023-01-25T22:48:45.768Z,101582.05
2023-01-25T22:52:12.743Z,101578.59
2023-01-25T22:55:39.784Z,101571.52
2023-01-25T22:59:08.148Z,101567.50
2023-01-25T23:02:37.164Z,101567.31
2023-01-25T23:06:07.915Z,101559.02
2023-01-25T23:09:34.951Z,101557.04
2023-01-25T23:13:02.131Z,101552.69
2023-01-25T23:16:29.105Z,101548.63
2023-01-25T23:19:56.224Z,101548.22
2023-01-25T23:23:23.429Z,101544.71
2023-01-25T23:26:50.387Z,101546.05
2023-01-25T23:30:18.643Z,101539.64
2023-01-25T23:33:45.773Z,101531.15
2023-01-25T23:37:14.911Z,101523.79
2023-01-25T23:40:43.752Z,101520.04
2023-01-25T23:44:10.711Z,101514.01
2023-01-25T23:47:38.240Z,101511.69
2023-01-25T23:51:05.886Z,101510.27
2023-01-25T23:54:33.165Z,101506.52
2023-01-25T23:58:00.190Z,101501.35
